createdAt,value
2018-02-19T00:02:14.606Z,58.35
2018-02-19T00:04:40.579Z,57.78
2018-02-19T00:07:06.534Z,56.77
2018-02-19T00:09:32.474Z,55.30
2018-02-19T00:11:58.404Z,57.07
2018-02-19T00:14:24.338Z,56.95
2018-02-19T00:16:50.262Z,56.98
2018-02-19T00:19:16.208Z,56.72
2018-02-19T00:21:42.137Z,56.85
2018-02-19T00:24:08.090Z,56.81
2018-02-19T00:26:34.017Z,57.18
2018-02-19T00:31:32.343Z,57.73
2018-02-19T00:33:58.285Z,57.71
2018-02-19T00:36:24.222Z,57.05
2018-02-19T00:38:50.159Z,56.10
2018-02-19T00:41:16.097Z,55.88
2018-02-19T00:43:42.033Z,55.09
2018-02-19T00:46:07.974Z,57.16
2018-02-19T00:48:33.924Z,57.21
2018-02-19T00:50:59.850Z,57.43
2018-02-19T00:53:25.788Z,57.24
2018-02-19T00:55:52.065Z,57.95
2018-02-19T00:58:18.006Z,55.59
2018-02-19T01:00:43.935Z,56.89
2018-02-19T01:03:09.867Z,58.13
2018-02-19T01:05:35.806Z,58.81
2018-02-19T01:08:01.733Z,58.87
2018-02-19T01:10:27.664Z,58.37
2018-02-19T01:12:53.596Z,58.64
2018-02-19T01:15:19.513Z,59.58
2018-02-19T01:20:16.945Z,60.10
2018-02-19T01:22:42.868Z,59.60
2018-02-19T01:25:08.790Z,56.30
2018-02-19T01:27:34.713Z,58.42
2018-02-19T01:30:00.644Z,57.19
2018-02-19T01:32:26.575Z,57.25
2018-02-19T01:34:52.496Z,55.44
2018-02-19T01:37:18.522Z,54.65
2018-02-19T01:39:44.457Z,57.59
2018-02-19T01:42:10.391Z,59.04
2018-02-19T01:44:36.334Z,60.02
2018-02-19T01:47:02.262Z,59.18
2018-02-19T01:49:28.194Z,59.32
2018-02-19T01:51:54.167Z,59.86
2018-02-19T01:54:20.110Z,59.91
2018-02-19T01:56:46.044Z,59.87
2018-02-19T01:59:11.983Z,60.43
2018-02-19T02:01:37.908Z,60.64
2018-02-19T02:04:03.862Z,61.10
2018-02-19T02:06:29.790Z,61.66
2018-02-19T02:08:55.727Z,60.21
2018-02-19T02:11:21.643Z,60.92
2018-02-19T02:13:47.598Z,61.29
2018-02-19T02:16:13.575Z,59.82
2018-02-19T02:18:39.495Z,60.25
2018-02-19T02:21:05.414Z,59.56
2018-02-19T02:23:31.354Z,59.33
2018-02-19T02:25:57.303Z,59.91
2018-02-19T02:28:23.259Z,61.51
2018-02-19T02:30:49.214Z,60.60
2018-02-19T02:33:15.143Z,60.76
2018-02-19T02:35:41.081Z,60.35
2018-02-19T02:38:07.008Z,60.89
2018-02-19T02:40:32.939Z,60.75
2018-02-19T02:42:58.910Z,61.10
2018-02-19T02:45:24.841Z,61.50
2018-02-19T02:47:50.771Z,60.75
2018-02-19T02:50:16.714Z,61.00
2018-02-19T02:52:42.646Z,61.65
2018-02-19T02:55:08.590Z,62.38
2018-02-19T02:57:34.545Z,62.11
2018-02-19T03:00:00.506Z,61.24
2018-02-19T03:02:26.435Z,60.54
2018-02-19T03:04:52.436Z,60.60
2018-02-19T03:07:18.400Z,62.62
2018-02-19T03:09:44.361Z,62.62
2018-02-19T03:12:10.286Z,62.36
2018-02-19T03:14:36.210Z,63.12
2018-02-19T03:17:02.130Z,63.41
2018-02-19T03:19:28.101Z,62.50
2018-02-19T03:21:54.030Z,61.98
2018-02-19T03:24:19.984Z,62.44
2018-02-19T03:26:45.915Z,62.50
2018-02-19T03:29:11.855Z,60.68
2018-02-19T03:31:37.771Z,61.61
2018-02-19T03:34:03.714Z,61.77
2018-02-19T03:36:29.634Z,62.41
2018-02-19T03:38:55.611Z,61.11
2018-02-19T03:41:21.593Z,62.36
2018-02-19T03:43:47.534Z,61.63
2018-02-19T03:46:13.476Z,61.43
2018-02-19T03:48:39.446Z,62.46
2018-02-19T03:51:05.384Z,63.21
2018-02-19T03:53:31.306Z,61.64
2018-02-19T03:55:57.245Z,62.02
2018-02-19T03:58:23.180Z,61.61
2018-02-19T04:00:49.111Z,62.48
2018-02-19T04:03:15.031Z,62.70
2018-02-19T04:05:40.981Z,62.00
2018-02-19T04:08:06.948Z,62.45
2018-02-19T04:10:32.887Z,62.11
2018-02-19T04:12:58.815Z,62.68
2018-02-19T04:15:24.865Z,61.72
2018-02-19T04:17:50.801Z,60.93
2018-02-19T04:20:16.770Z,61.99
2018-02-19T04:22:42.693Z,62.72
2018-02-19T04:25:08.698Z,62.00
2018-02-19T04:27:34.630Z,62.63
2018-02-19T04:30:00.562Z,62.55
2018-02-19T04:32:26.518Z,62.66
2018-02-19T04:34:52.458Z,63.05
2018-02-19T04:37:18.387Z,63.15
2018-02-19T04:39:44.322Z,62.90
2018-02-19T04:42:10.267Z,60.85
2018-02-19T04:44:36.224Z,61.16
2018-02-19T04:47:02.183Z,60.32
2018-02-19T04:49:28.115Z,61.60
2018-02-19T04:51:54.039Z,61.90
2018-02-19T04:54:19.975Z,63.17
2018-02-19T04:56:45.908Z,63.64
2018-02-19T04:59:11.831Z,64.67
2018-02-19T05:01:37.763Z,64.66
2018-02-19T05:04:03.699Z,64.89
2018-02-19T05:06:29.633Z,64.19
2018-02-19T05:08:55.563Z,63.41
2018-02-19T05:11:21.495Z,62.41
2018-02-19T05:13:47.439Z,63.87
2018-02-19T05:16:13.379Z,64.46
2018-02-19T05:18:39.323Z,63.85
2018-02-19T05:21:05.273Z,63.54
2018-02-19T05:23:31.214Z,62.76
2018-02-19T05:25:57.189Z,63.68
2018-02-19T05:28:23.127Z,63.37
2018-02-19T05:30:49.091Z,62.81
2018-02-19T05:33:15.028Z,63.42
2018-02-19T05:35:40.960Z,64.81
2018-02-19T05:38:06.882Z,63.83
2018-02-19T05:40:32.800Z,62.54
2018-02-19T05:42:58.727Z,63.05
2018-02-19T05:45:24.652Z,63.99
2018-02-19T05:47:50.575Z,64.45
2018-02-19T05:50:16.519Z,64.42
2018-02-19T05:52:42.457Z,64.67
2018-02-19T05:55:08.391Z,65.16
2018-02-19T05:57:34.334Z,63.61
2018-02-19T06:00:00.308Z,62.77
2018-02-19T06:02:26.342Z,63.41
2018-02-19T06:04:52.275Z,62.32
2018-02-19T06:07:18.237Z,62.32
2018-02-19T06:09:44.181Z,63.07
2018-02-19T06:12:10.106Z,63.44
2018-02-19T06:14:36.047Z,64.28
2018-02-19T06:17:01.968Z,63.80
2018-02-19T06:19:27.903Z,63.69
2018-02-19T06:21:53.834Z,63.08
2018-02-19T06:24:19.775Z,62.70
2018-02-19T06:26:45.713Z,62.99
2018-02-19T06:29:11.651Z,63.30
2018-02-19T06:31:37.569Z,63.71
2018-02-19T06:34:03.523Z,63.32
2018-02-19T06:36:30.618Z,62.62
2018-02-19T06:38:56.550Z,62.46
2018-02-19T06:41:22.476Z,62.33
2018-02-19T06:43:48.419Z,61.90
2018-02-19T06:46:14.348Z,61.63
2018-02-19T06:48:40.292Z,62.42
2018-02-19T06:51:06.237Z,63.74
2018-02-19T06:53:32.186Z,63.19
2018-02-19T06:55:58.141Z,62.97
2018-02-19T06:58:24.098Z,58.84
2018-02-19T07:00:50.043Z,60.64
2018-02-19T07:03:15.995Z,61.24
2018-02-19T07:05:41.921Z,59.45
2018-02-19T07:08:07.853Z,60.70
2018-02-19T07:10:33.770Z,57.31
2018-02-19T07:12:59.723Z,59.00
2018-02-19T07:15:25.666Z,58.33
2018-02-19T07:17:51.608Z,58.35
2018-02-19T07:20:17.570Z,59.55
2018-02-19T07:22:43.523Z,58.09
2018-02-19T07:25:09.469Z,58.69
2018-02-19T07:27:35.410Z,57.72
2018-02-19T07:30:01.350Z,58.57
2018-02-19T07:32:27.973Z,57.37
2018-02-19T07:34:53.903Z,57.02
2018-02-19T07:37:19.829Z,57.47
2018-02-19T07:39:45.804Z,58.49
2018-02-19T07:44:49.397Z,57.93
2018-02-19T07:47:22.102Z,56.81
2018-02-19T07:49:48.499Z,57.15
2018-02-19T07:52:14.438Z,57.49
2018-02-19T07:54:40.358Z,56.09
2018-02-19T07:57:06.288Z,55.48
2018-02-19T07:59:32.215Z,56.91
2018-02-19T08:01:58.146Z,57.02
2018-02-19T08:04:24.076Z,56.34
2018-02-19T08:06:50.029Z,55.36
2018-02-19T08:09:15.982Z,55.80
2018-02-19T08:11:41.935Z,56.05
2018-02-19T08:14:07.896Z,54.65
2018-02-19T08:16:33.975Z,53.55
2018-02-19T08:18:59.923Z,53.31
2018-02-19T08:21:25.957Z,51.89
2018-02-19T08:23:51.923Z,52.99
2018-02-19T08:26:17.859Z,51.28
2018-02-19T08:28:43.795Z,53.28
2018-02-19T08:31:09.740Z,52.15
2018-02-19T08:33:35.673Z,52.21
2018-02-19T08:36:01.608Z,50.62
2018-02-19T08:38:27.549Z,52.23
2018-02-19T08:40:53.596Z,53.82
2018-02-19T08:43:19.548Z,51.44
2018-02-19T08:45:45.475Z,53.03
2018-02-19T08:48:11.431Z,51.99
2018-02-19T08:50:37.378Z,50.70
2018-02-19T08:53:03.335Z,49.97
2018-02-19T08:55:29.267Z,50.12
2018-02-19T08:57:55.224Z,51.97
2018-02-19T09:00:21.182Z,51.07
2018-02-19T09:02:47.136Z,51.35
2018-02-19T09:05:13.067Z,50.64
2018-02-19T09:07:39.041Z,49.67
2018-02-19T09:10:04.987Z,48.79
2018-02-19T09:12:30.967Z,49.85
2018-02-19T09:14:56.910Z,50.08
2018-02-19T09:17:22.869Z,49.10
2018-02-19T09:19:48.815Z,48.38
2018-02-19T09:22:14.763Z,48.06
2018-02-19T09:24:40.779Z,48.99
2018-02-19T09:27:06.719Z,48.69
2018-02-19T09:29:32.673Z,47.46
2018-02-19T09:31:58.613Z,48.57
2018-02-19T09:34:24.611Z,48.32
2018-02-19T09:36:50.569Z,48.34
2018-02-19T09:39:16.516Z,47.20
2018-02-19T09:41:42.507Z,47.99
2018-02-19T09:44:08.407Z,46.93
2018-02-19T09:46:34.361Z,47.22
2018-02-19T09:49:00.343Z,47.32
2018-02-19T09:51:26.300Z,47.94
2018-02-19T09:53:52.239Z,46.87
2018-02-19T09:56:18.167Z,45.21
2018-02-19T09:58:44.116Z,46.24
2018-02-19T10:01:10.055Z,45.67
2018-02-19T10:03:35.984Z,45.36
2018-02-19T10:06:01.928Z,45.70
2018-02-19T10:08:27.879Z,45.74
2018-02-19T10:10:53.816Z,45.77
2018-02-19T10:13:19.773Z,45.74
2018-02-19T10:15:45.736Z,45.26
2018-02-19T10:18:11.679Z,45.23
2018-02-19T10:20:37.623Z,44.17
2018-02-19T10:23:03.560Z,44.45
2018-02-19T10:25:29.503Z,44.11
2018-02-19T10:27:55.446Z,44.80
2018-02-19T10:30:21.394Z,44.85
2018-02-19T10:32:47.339Z,44.96
2018-02-19T10:35:13.267Z,44.97
2018-02-19T10:37:39.205Z,45.63
2018-02-19T10:40:05.166Z,44.14
2018-02-19T10:42:31.093Z,44.73
2018-02-19T10:44:57.049Z,44.16
2018-02-19T10:47:22.987Z,44.71
2018-02-19T10:49:48.928Z,43.94
2018-02-19T10:52:14.868Z,43.97
2018-02-19T10:54:40.800Z,42.94
2018-02-19T10:57:06.717Z,44.01
2018-02-19T10:59:32.697Z,44.11
2018-02-19T11:01:58.633Z,43.97
2018-02-19T11:04:24.581Z,44.06
2018-02-19T11:06:50.525Z,43.48
2018-02-19T11:09:16.488Z,43.69
2018-02-19T11:11:42.437Z,43.63
2018-02-19T11:14:08.375Z,43.81
2018-02-19T11:16:34.312Z,43.48
2018-02-19T11:19:00.253Z,43.63
2018-02-19T11:21:26.195Z,42.62
2018-02-19T11:23:52.127Z,42.41
2018-02-19T11:26:18.053Z,41.90
2018-02-19T11:28:45.238Z,41.06
2018-02-19T11:31:11.249Z,40.72
2018-02-19T11:33:37.182Z,40.63
2018-02-19T11:36:03.102Z,41.70
2018-02-19T11:38:29.036Z,41.40
2018-02-19T11:40:54.975Z,40.98
2018-02-19T11:43:20.906Z,41.08
2018-02-19T11:45:47.083Z,40.85
2018-02-19T11:48:13.000Z,40.41
2018-02-19T11:50:38.964Z,40.76
2018-02-19T11:53:04.911Z,40.75
2018-02-19T11:55:30.848Z,40.22
2018-02-19T11:57:56.780Z,40.93
2018-02-19T12:00:22.706Z,40.26
2018-02-19T12:02:48.637Z,40.09
2018-02-19T12:05:14.566Z,40.25
2018-02-19T12:07:40.506Z,39.47
2018-02-19T12:10:06.435Z,39.93
2018-02-19T12:12:32.365Z,39.02
2018-02-19T12:14:58.305Z,39.01
2018-02-19T12:17:24.236Z,39.61
2018-02-19T12:19:50.158Z,39.36
2018-02-19T12:22:16.098Z,38.25
2018-02-19T12:24:42.032Z,39.48
2018-02-19T12:27:07.978Z,39.72
2018-02-19T12:29:33.902Z,39.47
2018-02-19T12:31:59.840Z,39.86
2018-02-19T12:34:25.797Z,40.19
2018-02-19T12:36:51.698Z,40.56
2018-02-19T12:39:17.644Z,40.89
2018-02-19T12:41:43.578Z,39.98
2018-02-19T12:44:09.502Z,41.01
2018-02-19T12:46:35.430Z,40.14
2018-02-19T12:49:01.402Z,40.12
2018-02-19T12:51:27.332Z,40.04
2018-02-19T12:53:53.296Z,40.74
2018-02-19T12:56:19.230Z,40.08
2018-02-19T12:58:45.176Z,40.55
2018-02-19T13:01:11.120Z,41.50
2018-02-19T13:03:37.074Z,40.70
2018-02-19T13:06:03.020Z,40.92
2018-02-19T13:08:29.036Z,41.65
2018-02-19T13:10:54.959Z,41.26
2018-02-19T13:13:20.948Z,40.93
2018-02-19T13:15:46.878Z,41.31
2018-02-19T13:18:12.814Z,41.23
2018-02-19T13:20:38.754Z,41.56
2018-02-19T13:23:04.696Z,41.96
2018-02-19T13:25:30.656Z,42.26
2018-02-19T13:27:56.584Z,42.41
2018-02-19T13:30:22.530Z,42.51
2018-02-19T13:32:48.466Z,42.46
2018-02-19T13:35:14.391Z,42.50
2018-02-19T13:37:40.328Z,42.65
2018-02-19T13:40:06.268Z,42.67
2018-02-19T13:42:32.203Z,43.74
2018-02-19T13:44:58.164Z,43.01
2018-02-19T13:47:24.131Z,43.17
2018-02-19T13:49:50.070Z,43.56
2018-02-19T13:52:16.010Z,43.65
2018-02-19T13:54:41.952Z,43.25
2018-02-19T13:57:07.887Z,43.33
2018-02-19T13:59:33.814Z,43.06
2018-02-19T14:01:59.753Z,43.14
2018-02-19T14:04:25.694Z,43.26
2018-02-19T14:06:51.667Z,43.21
2018-02-19T14:09:17.614Z,43.36
2018-02-19T14:11:43.551Z,43.43
2018-02-19T14:14:09.500Z,43.59
2018-02-19T14:16:35.445Z,43.81
2018-02-19T14:19:01.391Z,43.51
2018-02-19T14:21:27.331Z,43.01
2018-02-19T14:23:53.323Z,42.95
2018-02-19T14:26:19.262Z,42.77
2018-02-19T14:28:45.212Z,43.31
2018-02-19T14:31:11.135Z,43.32
2018-02-19T14:33:37.101Z,42.95
2018-02-19T14:36:03.007Z,42.50
2018-02-19T14:38:28.959Z,43.11
2018-02-19T14:40:54.896Z,42.59
2018-02-19T14:43:20.835Z,43.05
2018-02-19T14:45:46.782Z,43.40
2018-02-19T14:48:12.747Z,42.75
2018-02-19T14:50:38.723Z,43.26
2018-02-19T14:53:04.695Z,43.11
2018-02-19T14:55:30.650Z,43.09
2018-02-19T14:57:56.638Z,43.05
2018-02-19T15:00:22.573Z,43.19
2018-02-19T15:02:48.521Z,43.06
2018-02-19T15:05:14.464Z,43.11
2018-02-19T15:07:40.406Z,43.84
2018-02-19T15:10:06.346Z,43.75
2018-02-19T15:12:32.269Z,43.39
2018-02-19T15:14:58.202Z,43.57
2018-02-19T15:17:24.128Z,43.13
2018-02-19T15:19:50.055Z,43.25
2018-02-19T15:22:16.079Z,43.44
2018-02-19T15:24:42.007Z,43.57
2018-02-19T15:27:07.943Z,43.88
2018-02-19T15:29:33.875Z,43.68
2018-02-19T15:31:59.807Z,43.20
2018-02-19T15:34:25.749Z,43.06
2018-02-19T15:36:51.679Z,43.49
2018-02-19T15:39:17.611Z,43.61
2018-02-19T15:41:43.556Z,44.07
2018-02-19T15:44:09.495Z,43.79
2018-02-19T15:46:35.422Z,44.80
2018-02-19T15:49:01.378Z,44.49
2018-02-19T15:51:27.306Z,45.20
2018-02-19T15:53:53.278Z,44.83
2018-02-19T15:56:19.194Z,44.68
2018-02-19T15:58:45.132Z,44.64
2018-02-19T16:01:11.072Z,44.40
2018-02-19T16:03:36.994Z,44.32
2018-02-19T16:06:02.918Z,44.32
2018-02-19T16:08:28.842Z,44.04
2018-02-19T16:10:54.790Z,44.07
2018-02-19T16:13:20.721Z,43.82
2018-02-19T16:15:46.658Z,43.83
2018-02-19T16:18:12.608Z,43.56
2018-02-19T16:20:38.554Z,43.76
2018-02-19T16:23:04.491Z,43.84
2018-02-19T16:25:30.424Z,43.62
2018-02-19T16:27:56.406Z,43.75
2018-02-19T16:30:22.350Z,43.69
2018-02-19T16:32:48.268Z,43.83
2018-02-19T16:35:14.218Z,43.56
2018-02-19T16:37:40.154Z,44.15
2018-02-19T16:40:06.112Z,43.72
2018-02-19T16:42:32.056Z,43.66
2018-02-19T16:44:58.026Z,44.67
2018-02-19T16:47:25.776Z,44.39
2018-02-19T16:49:51.810Z,44.57
2018-02-19T16:52:17.754Z,44.82
2018-02-19T16:54:43.736Z,45.61
2018-02-19T16:57:09.676Z,44.92
2018-02-19T16:59:35.622Z,44.56
2018-02-19T17:02:01.582Z,44.69
2018-02-19T17:04:27.522Z,44.62
2018-02-19T17:06:53.457Z,44.60
2018-02-19T17:09:19.425Z,45.55
2018-02-19T17:11:45.362Z,46.34
2018-02-19T17:14:11.308Z,46.82
2018-02-19T17:16:37.264Z,47.48
2018-02-19T17:19:03.203Z,46.24
2018-02-19T17:21:29.135Z,46.31
2018-02-19T17:23:55.098Z,46.08
2018-02-19T17:26:21.035Z,45.66
2018-02-19T17:28:46.960Z,45.79
2018-02-19T17:31:12.894Z,46.46
2018-02-19T17:33:38.837Z,47.40
2018-02-19T17:36:04.778Z,48.33
2018-02-19T17:38:30.725Z,48.04
2018-02-19T17:40:56.771Z,47.06
2018-02-19T17:43:23.825Z,46.39
2018-02-19T17:45:49.804Z,46.64
2018-02-19T17:48:15.731Z,46.02
2018-02-19T17:50:41.668Z,46.68
2018-02-19T17:53:07.661Z,47.20
2018-02-19T17:55:33.615Z,48.00
2018-02-19T17:57:59.549Z,48.10
2018-02-19T18:00:25.495Z,49.15
2018-02-19T18:02:51.414Z,49.53
2018-02-19T18:05:17.373Z,49.17
2018-02-19T18:07:43.338Z,49.34
2018-02-19T18:10:09.283Z,49.21
2018-02-19T18:12:35.228Z,49.22
2018-02-19T18:15:01.167Z,49.95
2018-02-19T18:17:27.119Z,49.81
2018-02-19T18:19:53.083Z,50.42
2018-02-19T18:22:19.007Z,50.59
2018-02-19T18:24:44.996Z,50.15
2018-02-19T18:27:11.016Z,48.60
2018-02-19T18:29:36.947Z,48.39
2018-02-19T18:32:02.884Z,49.95
2018-02-19T18:34:28.825Z,51.14
2018-02-19T18:36:54.816Z,51.41
2018-02-19T18:39:20.775Z,51.90
2018-02-19T18:41:46.713Z,51.37
2018-02-19T18:44:12.675Z,51.17
2018-02-19T18:46:38.716Z,51.43
2018-02-19T18:49:04.652Z,52.18
2018-02-19T18:51:30.612Z,51.96
2018-02-19T18:53:56.540Z,50.31
2018-02-19T18:56:22.476Z,51.92
2018-02-19T18:58:48.441Z,51.64
2018-02-19T19:01:14.457Z,52.19
2018-02-19T19:03:40.400Z,52.47
2018-02-19T19:06:06.353Z,52.68
2018-02-19T19:08:32.304Z,52.61
2018-02-19T19:10:58.273Z,53.05
2018-02-19T19:13:24.211Z,53.05
2018-02-19T19:15:50.183Z,52.31
2018-02-19T19:18:16.166Z,51.62
2018-02-19T19:20:42.080Z,52.28
2018-02-19T19:23:08.032Z,50.93
2018-02-19T19:25:33.996Z,50.41
2018-02-19T19:27:59.932Z,49.81
2018-02-19T19:30:25.875Z,49.55
2018-02-19T19:32:51.802Z,48.92
2018-02-19T19:35:17.781Z,48.03
2018-02-19T19:37:43.788Z,48.70
2018-02-19T19:40:09.742Z,48.91
2018-02-19T19:42:35.734Z,51.10
2018-02-19T19:45:01.683Z,51.79
2018-02-19T19:47:27.634Z,52.13
2018-02-19T19:49:53.888Z,53.22
2018-02-19T19:52:19.826Z,53.68
2018-02-19T19:54:45.795Z,53.03
2018-02-19T19:57:11.759Z,52.99
2018-02-19T19:59:37.694Z,50.18
2018-02-19T20:02:03.634Z,50.22
2018-02-19T20:04:29.604Z,49.16
2018-02-19T20:06:55.582Z,48.74
2018-02-19T20:09:21.576Z,48.61
2018-02-19T20:11:47.532Z,49.35
2018-02-19T20:14:13.468Z,51.85
2018-02-19T20:16:39.444Z,53.04
2018-02-19T20:19:05.372Z,53.66
2018-02-19T20:21:31.360Z,53.43
2018-02-19T20:23:57.312Z,54.04
2018-02-19T20:26:23.236Z,53.80
2018-02-19T20:28:49.176Z,53.75
2018-02-19T20:31:15.118Z,52.24
2018-02-19T20:33:41.042Z,53.30
2018-02-19T20:36:06.995Z,51.44
2018-02-19T20:38:32.940Z,50.21
2018-02-19T20:40:58.862Z,50.65
2018-02-19T20:43:24.803Z,50.27
2018-02-19T20:45:50.750Z,52.96
2018-02-19T20:48:16.700Z,52.70
2018-02-19T20:50:42.624Z,52.85
2018-02-19T20:53:08.568Z,54.02
2018-02-19T20:55:34.596Z,54.14
2018-02-19T20:58:00.535Z,53.48
2018-02-19T21:00:26.538Z,54.44
2018-02-19T21:02:52.471Z,52.23
2018-02-19T21:05:18.398Z,54.11
2018-02-19T21:07:44.330Z,53.22
2018-02-19T21:10:10.272Z,53.31
2018-02-19T21:12:36.245Z,54.14
2018-02-19T21:15:02.179Z,54.42
2018-02-19T21:17:28.124Z,55.44
2018-02-19T21:19:54.078Z,54.60
2018-02-19T21:22:19.994Z,52.63
2018-02-19T21:24:45.932Z,53.52
2018-02-19T21:27:11.862Z,53.31
2018-02-19T21:29:37.783Z,54.32
2018-02-19T21:32:03.706Z,55.33
2018-02-19T21:34:29.635Z,54.20
2018-02-19T21:36:55.571Z,55.65
2018-02-19T21:39:21.590Z,56.27
2018-02-19T21:41:47.544Z,55.81
2018-02-19T21:44:13.490Z,56.14
2018-02-19T21:46:39.725Z,56.05
2018-02-19T21:49:05.642Z,56.05
2018-02-19T21:51:31.554Z,56.43
2018-02-19T21:53:57.514Z,56.40
2018-02-19T21:56:23.712Z,56.59
2018-02-19T21:58:49.641Z,56.41
2018-02-19T22:01:15.576Z,56.13
2018-02-19T22:03:41.505Z,56.58
2018-02-19T22:06:07.430Z,56.52
2018-02-19T22:08:33.357Z,56.91
2018-02-19T22:10:59.304Z,57.26
2018-02-19T22:13:25.241Z,57.50
2018-02-19T22:15:51.174Z,56.85
2018-02-19T22:18:17.120Z,56.97
2018-02-19T22:20:43.056Z,59.89
2018-02-19T22:23:08.979Z,59.85
2018-02-19T22:25:34.905Z,60.35
2018-02-19T22:28:00.834Z,58.26
2018-02-19T22:30:26.763Z,57.52
2018-02-19T22:32:52.679Z,57.93
2018-02-19T22:35:18.650Z,58.28
2018-02-19T22:37:44.559Z,59.08
2018-02-19T22:40:10.495Z,58.20
2018-02-19T22:42:36.422Z,58.58
2018-02-19T22:45:02.361Z,58.10
2018-02-19T22:47:28.294Z,59.82
2018-02-19T22:49:54.226Z,58.76
2018-02-19T22:52:20.166Z,58.69
2018-02-19T22:54:46.098Z,58.57
2018-02-19T22:57:12.027Z,57.76
2018-02-19T22:59:37.962Z,56.66
2018-02-19T23:02:03.884Z,56.83
2018-02-19T23:04:29.816Z,57.70
2018-02-19T23:06:55.810Z,56.95
2018-02-19T23:09:21.748Z,55.38
2018-02-19T23:11:47.692Z,54.61
2018-02-19T23:14:13.685Z,54.16
2018-02-19T23:16:39.573Z,55.37
2018-02-19T23:19:05.487Z,56.07
2018-02-19T23:21:31.423Z,53.64
2018-02-19T23:23:57.362Z,53.56
2018-02-19T23:26:23.294Z,56.12
2018-02-19T23:28:49.231Z,53.98
2018-02-19T23:31:15.176Z,53.08
2018-02-19T23:33:41.121Z,53.05
2018-02-19T23:36:08.069Z,53.54
2018-02-19T23:38:34.009Z,52.91
2018-02-19T23:40:59.941Z,52.82
2018-02-19T23:43:25.887Z,53.58
2018-02-19T23:45:51.829Z,54.14
2018-02-19T23:48:17.768Z,53.40
2018-02-19T23:50:43.692Z,53.47
2018-02-19T23:53:09.619Z,53.68
2018-02-19T23:55:35.582Z,54.27
2018-02-19T23:58:01.488Z,53.65
